sensor_id;sensor_type;location;lat;lon;timestamp;pressure;altitude;pressure_sealevel;temperature
19282;BMP180;9774;52.034;5.342;2023-01-19T00:00:37;99757.00;;;9.10
19282;BMP180;9774;52.034;5.342;2023-01-19T00:03:04;99752.00;;;9.10
19282;BMP180;9774;52.034;5.342;2023-01-19T00:05:35;99753.00;;;9.20
19282;BMP180;9774;52.034;5.342;2023-01-19T00:08:04;99765.00;;;9.20
19282;BMP180;9774;52.034;5.342;2023-01-19T00:10:40;99768.00;;;9.20
19282;BMP180;9774;52.034;5.342;2023-01-19T00:13:08;99753.00;;;9.20
19282;BMP180;9774;52.034;5.342;2023-01-19T00:15:35;99757.00;;;9.20
19282;BMP180;9774;52.034;5.342;2023-01-19T00:18:02;99752.00;;;9.20
19282;BMP180;9774;52.034;5.342;2023-01-19T00:20:30;99752.00;;;9.20
19282;BMP180;9774;52.034;5.342;2023-01-19T00:23:00;99752.00;;;9.20
19282;BMP180;9774;52.034;5.342;2023-01-19T00:25:29;99757.00;;;9.20
19282;BMP180;9774;52.034;5.342;2023-01-19T00:27:56;99755.00;;;9.20
19282;BMP180;9774;52.034;5.342;2023-01-19T00:30:24;99763.00;;;9.20
19282;BMP180;9774;52.034;5.342;2023-01-19T00:32:51;99751.00;;;9.20
19282;BMP180;9774;52.034;5.342;2023-01-19T00:35:18;99758.00;;;9.20
19282;BMP180;9774;52.034;5.342;2023-01-19T00:37:46;99749.00;;;9.20
19282;BMP180;9774;52.034;5.342;2023-01-19T00:40:13;99762.00;;;9.30
19282;BMP180;9774;52.034;5.342;2023-01-19T00:42:42;99771.00;;;9.20
19282;BMP180;9774;52.034;5.342;2023-01-19T00:45:11;99762.00;;;9.20
19282;BMP180;9774;52.034;5.342;2023-01-19T00:47:39;99756.00;;;9.30
19282;BMP180;9774;52.034;5.342;2023-01-19T00:50:08;99762.00;;;9.30
19282;BMP180;9774;52.034;5.342;2023-01-19T00:52:36;99754.00;;;9.30
19282;BMP180;9774;52.034;5.342;2023-01-19T00:55:05;99740.00;;;9.30
19282;BMP180;9774;52.034;5.342;2023-01-19T00:57:32;99752.00;;;9.30
19282;BMP180;9774;52.034;5.342;2023-01-19T01:00:02;99755.00;;;9.20
19282;BMP180;9774;52.034;5.342;2023-01-19T01:02:32;99751.00;;;9.30
19282;BMP180;9774;52.034;5.342;2023-01-19T01:04:59;99749.00;;;9.30
19282;BMP180;9774;52.034;5.342;2023-01-19T01:07:28;99739.00;;;9.30
19282;BMP180;9774;52.034;5.342;2023-01-19T01:09:56;99745.00;;;9.30
19282;BMP180;9774;52.034;5.342;2023-01-19T01:12:23;99752.00;;;9.20
19282;BMP180;9774;52.034;5.342;2023-01-19T01:14:51;99758.00;;;9.20
19282;BMP180;9774;52.034;5.342;2023-01-19T01:17:19;99744.00;;;9.20
19282;BMP180;9774;52.034;5.342;2023-01-19T01:19:49;99764.00;;;9.20
19282;BMP180;9774;52.034;5.342;2023-01-19T01:22:17;99750.00;;;9.20
19282;BMP180;9774;52.034;5.342;2023-01-19T01:24:45;99757.00;;;9.20
19282;BMP180;9774;52.034;5.342;2023-01-19T01:27:12;99761.00;;;9.10
19282;BMP180;9774;52.034;5.342;2023-01-19T01:29:39;99759.00;;;9.20
19282;BMP180;9774;52.034;5.342;2023-01-19T01:32:11;99764.00;;;9.10
19282;BMP180;9774;52.034;5.342;2023-01-19T01:34:40;99773.00;;;9.10
19282;BMP180;9774;52.034;5.342;2023-01-19T01:37:08;99785.00;;;9.10
19282;BMP180;9774;52.034;5.342;2023-01-19T01:39:36;99779.00;;;9.10
19282;BMP180;9774;52.034;5.342;2023-01-19T01:42:08;99786.00;;;9.10
19282;BMP180;9774;52.034;5.342;2023-01-19T01:44:58;99787.00;;;9.00
19282;BMP180;9774;52.034;5.342;2023-01-19T01:47:30;99789.00;;;9.10
19282;BMP180;9774;52.034;5.342;2023-01-19T01:50:04;99783.00;;;9.10
19282;BMP180;9774;52.034;5.342;2023-01-19T01:52:34;99781.00;;;9.10
19282;BMP180;9774;52.034;5.342;2023-01-19T01:55:05;99782.00;;;9.10
19282;BMP180;9774;52.034;5.342;2023-01-19T01:57:34;99785.00;;;9.10
19282;BMP180;9774;52.034;5.342;2023-01-19T02:00:03;99779.00;;;9.20
19282;BMP180;9774;52.034;5.342;2023-01-19T02:02:33;99781.00;;;9.20
19282;BMP180;9774;52.034;5.342;2023-01-19T02:05:23;99781.00;;;9.20
19282;BMP180;9774;52.034;5.342;2023-01-19T02:07:55;99786.00;;;9.20
19282;BMP180;9774;52.034;5.342;2023-01-19T02:10:42;99784.00;;;9.20
19282;BMP180;9774;52.034;5.342;2023-01-19T02:13:29;99788.00;;;9.30
19282;BMP180;9774;52.034;5.342;2023-01-19T02:15:58;99781.00;;;9.30
19282;BMP180;9774;52.034;5.342;2023-01-19T02:18:29;99783.00;;;9.30
19282;BMP180;9774;52.034;5.342;2023-01-19T02:21:07;99800.00;;;9.30
19282;BMP180;9774;52.034;5.342;2023-01-19T02:23:42;99794.00;;;9.30
19282;BMP180;9774;52.034;5.342;2023-01-19T02:26:12;99790.00;;;9.40
19282;BMP180;9774;52.034;5.342;2023-01-19T02:28:42;99801.00;;;9.40
19282;BMP180;9774;52.034;5.342;2023-01-19T02:31:11;99811.00;;;9.50
19282;BMP180;9774;52.034;5.342;2023-01-19T02:33:40;99813.00;;;9.50
19282;BMP180;9774;52.034;5.342;2023-01-19T02:36:09;99820.00;;;9.50
19282;BMP180;9774;52.034;5.342;2023-01-19T02:38:39;99808.00;;;9.50
19282;BMP180;9774;52.034;5.342;2023-01-19T02:41:08;99817.00;;;9.50
19282;BMP180;9774;52.034;5.342;2023-01-19T02:43:38;99834.00;;;9.50
19282;BMP180;9774;52.034;5.342;2023-01-19T02:46:06;99831.00;;;9.50
19282;BMP180;9774;52.034;5.342;2023-01-19T02:48:34;99837.00;;;9.50
19282;BMP180;9774;52.034;5.342;2023-01-19T02:51:02;99847.00;;;9.50
19282;BMP180;9774;52.034;5.342;2023-01-19T02:53:48;99839.00;;;9.40
19282;BMP180;9774;52.034;5.342;2023-01-19T02:56:38;99857.00;;;9.30
19282;BMP180;9774;52.034;5.342;2023-01-19T02:59:14;99863.00;;;9.40
19282;BMP180;9774;52.034;5.342;2023-01-19T03:01:59;99866.00;;;9.30
19282;BMP180;9774;52.034;5.342;2023-01-19T03:04:36;99865.00;;;9.40
19282;BMP180;9774;52.034;5.342;2023-01-19T03:07:09;99860.00;;;9.40
19282;BMP180;9774;52.034;5.342;2023-01-19T03:09:43;99873.00;;;9.40
19282;BMP180;9774;52.034;5.342;2023-01-19T03:12:22;99874.00;;;9.30
19282;BMP180;9774;52.034;5.342;2023-01-19T03:14:54;99876.00;;;9.40
19282;BMP180;9774;52.034;5.342;2023-01-19T03:17:24;99868.00;;;9.30
19282;BMP180;9774;52.034;5.342;2023-01-19T03:19:53;99866.00;;;9.30
19282;BMP180;9774;52.034;5.342;2023-01-19T03:22:23;99864.00;;;9.30
19282;BMP180;9774;52.034;5.342;2023-01-19T03:24:54;99867.00;;;9.30
19282;BMP180;9774;52.034;5.342;2023-01-19T03:27:26;99860.00;;;9.30
19282;BMP180;9774;52.034;5.342;2023-01-19T03:29:57;99864.00;;;9.30
19282;BMP180;9774;52.034;5.342;2023-01-19T03:32:30;99848.00;;;9.30
19282;BMP180;9774;52.034;5.342;2023-01-19T03:34:59;99871.00;;;9.30
19282;BMP180;9774;52.034;5.342;2023-01-19T03:37:31;99875.00;;;9.30
19282;BMP180;9774;52.034;5.342;2023-01-19T03:40:01;99885.00;;;9.40
19282;BMP180;9774;52.034;5.342;2023-01-19T03:42:28;99875.00;;;9.40
19282;BMP180;9774;52.034;5.342;2023-01-19T03:44:56;99879.00;;;9.40
19282;BMP180;9774;52.034;5.342;2023-01-19T03:47:25;99871.00;;;9.40
19282;BMP180;9774;52.034;5.342;2023-01-19T03:49:54;99874.00;;;9.40
19282;BMP180;9774;52.034;5.342;2023-01-19T03:52:28;99885.00;;;9.30
19282;BMP180;9774;52.034;5.342;2023-01-19T03:55:00;99889.00;;;9.30
19282;BMP180;9774;52.034;5.342;2023-01-19T03:57:28;99914.00;;;9.30
19282;BMP180;9774;52.034;5.342;2023-01-19T03:59:56;99906.00;;;9.30
19282;BMP180;9774;52.034;5.342;2023-01-19T04:02:24;99912.00;;;9.30
19282;BMP180;9774;52.034;5.342;2023-01-19T04:04:52;99910.00;;;9.20
19282;BMP180;9774;52.034;5.342;2023-01-19T04:07:19;99915.00;;;9.20
19282;BMP180;9774;52.034;5.342;2023-01-19T04:09:46;99906.00;;;9.20
19282;BMP180;9774;52.034;5.342;2023-01-19T04:12:15;99908.00;;;9.10
19282;BMP180;9774;52.034;5.342;2023-01-19T04:14:42;99900.00;;;9.10
19282;BMP180;9774;52.034;5.342;2023-01-19T04:17:09;99895.00;;;9.10
19282;BMP180;9774;52.034;5.342;2023-01-19T04:19:37;99895.00;;;9.00
19282;BMP180;9774;52.034;5.342;2023-01-19T04:22:04;99892.00;;;9.00
19282;BMP180;9774;52.034;5.342;2023-01-19T04:24:31;99890.00;;;9.00
19282;BMP180;9774;52.034;5.342;2023-01-19T04:26:58;99888.00;;;9.00
19282;BMP180;9774;52.034;5.342;2023-01-19T04:29:27;99895.00;;;8.90
19282;BMP180;9774;52.034;5.342;2023-01-19T04:31:54;99891.00;;;8.90
19282;BMP180;9774;52.034;5.342;2023-01-19T04:34:21;99884.00;;;8.90
19282;BMP180;9774;52.034;5.342;2023-01-19T04:36:49;99894.00;;;8.90
19282;BMP180;9774;52.034;5.342;2023-01-19T04:39:17;99892.00;;;8.90
19282;BMP180;9774;52.034;5.342;2023-01-19T04:41:44;99897.00;;;8.90
19282;BMP180;9774;52.034;5.342;2023-01-19T04:44:11;99903.00;;;8.90
19282;BMP180;9774;52.034;5.342;2023-01-19T04:46:40;99908.00;;;8.90
19282;BMP180;9774;52.034;5.342;2023-01-19T04:49:08;99902.00;;;8.80
19282;BMP180;9774;52.034;5.342;2023-01-19T04:51:35;99910.00;;;8.80
19282;BMP180;9774;52.034;5.342;2023-01-19T04:54:03;99909.00;;;8.80
19282;BMP180;9774;52.034;5.342;2023-01-19T04:56:30;99914.00;;;8.80
19282;BMP180;9774;52.034;5.342;2023-01-19T04:58:57;99917.00;;;8.80
19282;BMP180;9774;52.034;5.342;2023-01-19T05:01:24;99930.00;;;8.80
19282;BMP180;9774;52.034;5.342;2023-01-19T05:03:53;99926.00;;;8.80
19282;BMP180;9774;52.034;5.342;2023-01-19T05:06:20;99939.00;;;8.80
19282;BMP180;9774;52.034;5.342;2023-01-19T05:08:48;99937.00;;;8.80
19282;BMP180;9774;52.034;5.342;2023-01-19T05:11:15;99937.00;;;8.80
19282;BMP180;9774;52.034;5.342;2023-01-19T05:13:43;99942.00;;;8.80
19282;BMP180;9774;52.034;5.342;2023-01-19T05:16:10;99956.00;;;8.80
19282;BMP180;9774;52.034;5.342;2023-01-19T05:18:38;99970.00;;;8.90
19282;BMP180;9774;52.034;5.342;2023-01-19T05:21:08;99979.00;;;8.80
19282;BMP180;9774;52.034;5.342;2023-01-19T05:23:35;99969.00;;;8.90
19282;BMP180;9774;52.034;5.342;2023-01-19T05:26:03;99961.00;;;8.90
19282;BMP180;9774;52.034;5.342;2023-01-19T05:28:31;99954.00;;;8.90
19282;BMP180;9774;52.034;5.342;2023-01-19T05:30:59;99955.00;;;8.90
19282;BMP180;9774;52.034;5.342;2023-01-19T05:33:26;99959.00;;;8.90
19282;BMP180;9774;52.034;5.342;2023-01-19T05:35:54;99965.00;;;8.90
19282;BMP180;9774;52.034;5.342;2023-01-19T05:38:23;99967.00;;;8.90
19282;BMP180;9774;52.034;5.342;2023-01-19T05:40:56;99967.00;;;8.90
19282;BMP180;9774;52.034;5.342;2023-01-19T05:43:23;99964.00;;;9.00
19282;BMP180;9774;52.034;5.342;2023-01-19T05:45:51;99964.00;;;9.00
19282;BMP180;9774;52.034;5.342;2023-01-19T05:48:18;99969.00;;;9.00
19282;BMP180;9774;52.034;5.342;2023-01-19T05:50:45;99965.00;;;9.10
19282;BMP180;9774;52.034;5.342;2023-01-19T05:53:14;99969.00;;;9.10
19282;BMP180;9774;52.034;5.342;2023-01-19T05:55:43;99976.00;;;9.10
19282;BMP180;9774;52.034;5.342;2023-01-19T05:58:10;99976.00;;;9.10
19282;BMP180;9774;52.034;5.342;2023-01-19T06:00:37;99973.00;;;9.10
19282;BMP180;9774;52.034;5.342;2023-01-19T06:03:05;99976.00;;;9.20
19282;BMP180;9774;52.034;5.342;2023-01-19T06:05:32;99988.00;;;9.20
19282;BMP180;9774;52.034;5.342;2023-01-19T06:08:00;99981.00;;;9.20
19282;BMP180;9774;52.034;5.342;2023-01-19T06:10:27;99988.00;;;9.20
19282;BMP180;9774;52.034;5.342;2023-01-19T06:12:56;99990.00;;;9.20
19282;BMP180;9774;52.034;5.342;2023-01-19T06:15:23;99992.00;;;9.20
19282;BMP180;9774;52.034;5.342;2023-01-19T06:17:51;100004.00;;;9.20
19282;BMP180;9774;52.034;5.342;2023-01-19T06:20:18;100002.00;;;9.20
19282;BMP180;9774;52.034;5.342;2023-01-19T06:22:45;100002.00;;;9.10
19282;BMP180;9774;52.034;5.342;2023-01-19T06:25:13;100008.00;;;9.10
19282;BMP180;9774;52.034;5.342;2023-01-19T06:27:43;100007.00;;;9.10
19282;BMP180;9774;52.034;5.342;2023-01-19T06:30:13;100009.00;;;9.10
19282;BMP180;9774;52.034;5.342;2023-01-19T06:32:40;100014.00;;;9.10
19282;BMP180;9774;52.034;5.342;2023-01-19T06:35:08;100009.00;;;9.10
19282;BMP180;9774;52.034;5.342;2023-01-19T06:37:36;100028.00;;;9.10
19282;BMP180;9774;52.034;5.342;2023-01-19T06:40:04;100032.00;;;9.10
19282;BMP180;9774;52.034;5.342;2023-01-19T06:42:31;100029.00;;;9.20
19282;BMP180;9774;52.034;5.342;2023-01-19T06:44:59;100039.00;;;9.20
19282;BMP180;9774;52.034;5.342;2023-01-19T06:47:27;100030.00;;;9.10
19282;BMP180;9774;52.034;5.342;2023-01-19T06:49:55;100042.00;;;9.10
19282;BMP180;9774;52.034;5.342;2023-01-19T06:52:22;100050.00;;;9.10
19282;BMP180;9774;52.034;5.342;2023-01-19T06:54:49;100051.00;;;9.10
19282;BMP180;9774;52.034;5.342;2023-01-19T06:57:17;100054.00;;;9.10
19282;BMP180;9774;52.034;5.342;2023-01-19T06:59:44;100055.00;;;9.10
19282;BMP180;9774;52.034;5.342;2023-01-19T07:02:12;100064.00;;;9.10
19282;BMP180;9774;52.034;5.342;2023-01-19T07:04:44;100074.00;;;9.10
19282;BMP180;9774;52.034;5.342;2023-01-19T07:07:11;100065.00;;;9.10
19282;BMP180;9774;52.034;5.342;2023-01-19T07:09:39;100073.00;;;9.00
19282;BMP180;9774;52.034;5.342;2023-01-19T07:12:06;100084.00;;;9.00
19282;BMP180;9774;52.034;5.342;2023-01-19T07:14:34;100080.00;;;9.00
19282;BMP180;9774;52.034;5.342;2023-01-19T07:17:01;100090.00;;;9.00
19282;BMP180;9774;52.034;5.342;2023-01-19T07:19:28;100090.00;;;9.00
19282;BMP180;9774;52.034;5.342;2023-01-19T07:21:57;100092.00;;;9.00
19282;BMP180;9774;52.034;5.342;2023-01-19T07:24:25;100099.00;;;8.90
19282;BMP180;9774;52.034;5.342;2023-01-19T07:26:52;100104.00;;;8.90
19282;BMP180;9774;52.034;5.342;2023-01-19T07:29:19;100109.00;;;8.90
19282;BMP180;9774;52.034;5.342;2023-01-19T07:31:46;100109.00;;;8.80
19282;BMP180;9774;52.034;5.342;2023-01-19T07:34:15;100121.00;;;8.80
19282;BMP180;9774;52.034;5.342;2023-01-19T07:36:42;100126.00;;;8.80
19282;BMP180;9774;52.034;5.342;2023-01-19T07:39:11;100112.00;;;8.70
19282;BMP180;9774;52.034;5.342;2023-01-19T07:41:38;100118.00;;;8.70
19282;BMP180;9774;52.034;5.342;2023-01-19T07:44:05;100123.00;;;8.70
19282;BMP180;9774;52.034;5.342;2023-01-19T07:46:33;100121.00;;;8.70
19282;BMP180;9774;52.034;5.342;2023-01-19T07:49:00;100128.00;;;8.70
19282;BMP180;9774;52.034;5.342;2023-01-19T07:51:28;100136.00;;;8.70
19282;BMP180;9774;52.034;5.342;2023-01-19T07:53:55;100139.00;;;8.70
19282;BMP180;9774;52.034;5.342;2023-01-19T07:56:24;100144.00;;;8.70
19282;BMP180;9774;52.034;5.342;2023-01-19T07:58:53;100144.00;;;8.70
19282;BMP180;9774;52.034;5.342;2023-01-19T08:01:21;100141.00;;;8.70
19282;BMP180;9774;52.034;5.342;2023-01-19T08:03:48;100146.00;;;8.70
19282;BMP180;9774;52.034;5.342;2023-01-19T08:06:18;100146.00;;;8.70
19282;BMP180;9774;52.034;5.342;2023-01-19T08:08:46;100144.00;;;8.70
19282;BMP180;9774;52.034;5.342;2023-01-19T08:11:13;100158.00;;;8.70
19282;BMP180;9774;52.034;5.342;2023-01-19T08:13:42;100159.00;;;8.70
19282;BMP180;9774;52.034;5.342;2023-01-19T08:16:09;100169.00;;;8.70
19282;BMP180;9774;52.034;5.342;2023-01-19T08:18:36;100167.00;;;8.70
19282;BMP180;9774;52.034;5.342;2023-01-19T08:21:04;100171.00;;;8.80
19282;BMP180;9774;52.034;5.342;2023-01-19T08:23:31;100174.00;;;8.80
19282;BMP180;9774;52.034;5.342;2023-01-19T08:25:59;100186.00;;;8.80
19282;BMP180;9774;52.034;5.342;2023-01-19T08:28:26;100183.00;;;8.80
19282;BMP180;9774;52.034;5.342;2023-01-19T08:30:55;100177.00;;;8.80
19282;BMP180;9774;52.034;5.342;2023-01-19T08:33:24;100187.00;;;8.80
19282;BMP180;9774;52.034;5.342;2023-01-19T08:35:52;100191.00;;;8.80
19282;BMP180;9774;52.034;5.342;2023-01-19T08:38:19;100186.00;;;8.80
19282;BMP180;9774;52.034;5.342;2023-01-19T08:40:48;100193.00;;;8.80
19282;BMP180;9774;52.034;5.342;2023-01-19T08:43:16;100209.00;;;8.80
19282;BMP180;9774;52.034;5.342;2023-01-19T08:45:48;100207.00;;;8.80
19282;BMP180;9774;52.034;5.342;2023-01-19T08:48:19;100210.00;;;8.80
19282;BMP180;9774;52.034;5.342;2023-01-19T08:50:47;100215.00;;;8.80
19282;BMP180;9774;52.034;5.342;2023-01-19T08:53:15;100215.00;;;8.90
19282;BMP180;9774;52.034;5.342;2023-01-19T08:55:44;100218.00;;;8.80
19282;BMP180;9774;52.034;5.342;2023-01-19T08:58:11;100219.00;;;8.80
19282;BMP180;9774;52.034;5.342;2023-01-19T09:00:40;100230.00;;;8.90
19282;BMP180;9774;52.034;5.342;2023-01-19T09:03:10;100224.00;;;8.90
19282;BMP180;9774;52.034;5.342;2023-01-19T09:05:39;100230.00;;;8.90
19282;BMP180;9774;52.034;5.342;2023-01-19T09:08:09;100240.00;;;9.00
19282;BMP180;9774;52.034;5.342;2023-01-19T09:10:37;100235.00;;;9.10
19282;BMP180;9774;52.034;5.342;2023-01-19T09:13:06;100236.00;;;9.10
19282;BMP180;9774;52.034;5.342;2023-01-19T09:15:36;100234.00;;;9.20
19282;BMP180;9774;52.034;5.342;2023-01-19T09:18:04;100239.00;;;9.30
19282;BMP180;9774;52.034;5.342;2023-01-19T09:20:32;100235.00;;;9.40
19282;BMP180;9774;52.034;5.342;2023-01-19T09:23:02;100246.00;;;9.50
19282;BMP180;9774;52.034;5.342;2023-01-19T09:25:29;100244.00;;;9.50
19282;BMP180;9774;52.034;5.342;2023-01-19T09:27:59;100245.00;;;9.60
19282;BMP180;9774;52.034;5.342;2023-01-19T09:30:27;100248.00;;;9.70
19282;BMP180;9774;52.034;5.342;2023-01-19T09:32:54;100251.00;;;9.80
19282;BMP180;9774;52.034;5.342;2023-01-19T09:35:21;100251.00;;;9.80
19282;BMP180;9774;52.034;5.342;2023-01-19T09:37:49;100249.00;;;9.90
19282;BMP180;9774;52.034;5.342;2023-01-19T09:40:22;100249.00;;;9.90
19282;BMP180;9774;52.034;5.342;2023-01-19T09:42:54;100257.00;;;9.90
19282;BMP180;9774;52.034;5.342;2023-01-19T09:45:26;100259.00;;;10.00
19282;BMP180;9774;52.034;5.342;2023-01-19T09:47:56;100259.00;;;10.00
19282;BMP180;9774;52.034;5.342;2023-01-19T09:50:26;100264.00;;;10.00
19282;BMP180;9774;52.034;5.342;2023-01-19T09:52:56;100259.00;;;10.10
19282;BMP180;9774;52.034;5.342;2023-01-19T09:55:28;100265.00;;;10.10
19282;BMP180;9774;52.034;5.342;2023-01-19T09:57:55;100276.00;;;10.20
19282;BMP180;9774;52.034;5.342;2023-01-19T10:00:23;100280.00;;;10.20
19282;BMP180;9774;52.034;5.342;2023-01-19T10:02:56;100272.00;;;10.10
19282;BMP180;9774;52.034;5.342;2023-01-19T10:05:29;100275.00;;;10.20
19282;BMP180;9774;52.034;5.342;2023-01-19T10:08:06;100281.00;;;10.20
19282;BMP180;9774;52.034;5.342;2023-01-19T10:10:36;100271.00;;;10.20
19282;BMP180;9774;52.034;5.342;2023-01-19T10:13:28;100279.00;;;10.20
19282;BMP180;9774;52.034;5.342;2023-01-19T10:16:20;100285.00;;;10.20
19282;BMP180;9774;52.034;5.342;2023-01-19T10:18:52;100288.00;;;10.30
19282;BMP180;9774;52.034;5.342;2023-01-19T10:21:23;100295.00;;;10.30
19282;BMP180;9774;52.034;5.342;2023-01-19T10:23:55;100285.00;;;10.40
19282;BMP180;9774;52.034;5.342;2023-01-19T10:26:26;100289.00;;;10.40
19282;BMP180;9774;52.034;5.342;2023-01-19T10:28:56;100287.00;;;10.40
19282;BMP180;9774;52.034;5.342;2023-01-19T10:31:24;100293.00;;;10.50
19282;BMP180;9774;52.034;5.342;2023-01-19T10:33:52;100292.00;;;10.50
19282;BMP180;9774;52.034;5.342;2023-01-19T10:36:21;100289.00;;;10.60
19282;BMP180;9774;52.034;5.342;2023-01-19T10:38:51;100288.00;;;10.60
19282;BMP180;9774;52.034;5.342;2023-01-19T10:41:25;100287.00;;;10.60
19282;BMP180;9774;52.034;5.342;2023-01-19T10:43:59;100294.00;;;10.70
19282;BMP180;9774;52.034;5.342;2023-01-19T10:46:33;100292.00;;;10.70
19282;BMP180;9774;52.034;5.342;2023-01-19T10:49:03;100296.00;;;10.80
19282;BMP180;9774;52.034;5.342;2023-01-19T10:51:31;100296.00;;;10.80
19282;BMP180;9774;52.034;5.342;2023-01-19T10:54:00;100291.00;;;10.90
19282;BMP180;9774;52.034;5.342;2023-01-19T10:56:33;100295.00;;;10.90
19282;BMP180;9774;52.034;5.342;2023-01-19T10:59:02;100295.00;;;11.00
19282;BMP180;9774;52.034;5.342;2023-01-19T11:01:30;100296.00;;;11.00
19282;BMP180;9774;52.034;5.342;2023-01-19T11:04:19;100292.00;;;11.00
19282;BMP180;9774;52.034;5.342;2023-01-19T11:06:47;100291.00;;;11.10
19282;BMP180;9774;52.034;5.342;2023-01-19T11:09:16;100290.00;;;11.10
19282;BMP180;9774;52.034;5.342;2023-01-19T11:11:48;100298.00;;;11.10
19282;BMP180;9774;52.034;5.342;2023-01-19T11:14:19;100301.00;;;11.20
19282;BMP180;9774;52.034;5.342;2023-01-19T11:16:50;100311.00;;;11.20
19282;BMP180;9774;52.034;5.342;2023-01-19T11:19:25;100304.00;;;11.20
19282;BMP180;9774;52.034;5.342;2023-01-19T11:22:08;100301.00;;;11.20
19282;BMP180;9774;52.034;5.342;2023-01-19T11:24:37;100305.00;;;11.40
19282;BMP180;9774;52.034;5.342;2023-01-19T11:27:06;100307.00;;;11.40
19282;BMP180;9774;52.034;5.342;2023-01-19T11:29:33;100310.00;;;11.40
19282;BMP180;9774;52.034;5.342;2023-01-19T11:32:17;100309.00;;;11.40
19282;BMP180;9774;52.034;5.342;2023-01-19T11:34:45;100306.00;;;11.50
19282;BMP180;9774;52.034;5.342;2023-01-19T11:37:29;100302.00;;;11.40
19282;BMP180;9774;52.034;5.342;2023-01-19T11:40:00;100305.00;;;11.50
19282;BMP180;9774;52.034;5.342;2023-01-19T11:42:32;100302.00;;;11.50
19282;BMP180;9774;52.034;5.342;2023-01-19T11:45:05;100308.00;;;11.50
19282;BMP180;9774;52.034;5.342;2023-01-19T11:47:37;100307.00;;;11.50
19282;BMP180;9774;52.034;5.342;2023-01-19T11:50:14;100303.00;;;11.50
19282;BMP180;9774;52.034;5.342;2023-01-19T11:52:50;100305.00;;;11.50
19282;BMP180;9774;52.034;5.342;2023-01-19T11:55:24;100302.00;;;11.50
19282;BMP180;9774;52.034;5.342;2023-01-19T11:57:56;100310.00;;;11.40
19282;BMP180;9774;52.034;5.342;2023-01-19T12:00:26;100308.00;;;11.40
19282;BMP180;9774;52.034;5.342;2023-01-19T12:03:01;100307.00;;;11.40
19282;BMP180;9774;52.034;5.342;2023-01-19T12:05:34;100310.00;;;11.40
19282;BMP180;9774;52.034;5.342;2023-01-19T12:08:05;100311.00;;;11.40
19282;BMP180;9774;52.034;5.342;2023-01-19T12:10:38;100314.00;;;11.30
19282;BMP180;9774;52.034;5.342;2023-01-19T12:13:19;100314.00;;;11.30
19282;BMP180;9774;52.034;5.342;2023-01-19T12:15:49;100317.00;;;11.30
19282;BMP180;9774;52.034;5.342;2023-01-19T12:18:19;100311.00;;;11.30
19282;BMP180;9774;52.034;5.342;2023-01-19T12:20:50;100317.00;;;11.30
19282;BMP180;9774;52.034;5.342;2023-01-19T12:23:31;100316.00;;;11.30
19282;BMP180;9774;52.034;5.342;2023-01-19T12:26:17;100319.00;;;11.30
19282;BMP180;9774;52.034;5.342;2023-01-19T12:28:50;100315.00;;;11.30
19282;BMP180;9774;52.034;5.342;2023-01-19T12:31:20;100309.00;;;11.30
19282;BMP180;9774;52.034;5.342;2023-01-19T12:33:51;100315.00;;;11.30
19282;BMP180;9774;52.034;5.342;2023-01-19T12:36:33;100317.00;;;11.20
19282;BMP180;9774;52.034;5.342;2023-01-19T12:39:02;100320.00;;;11.20
19282;BMP180;9774;52.034;5.342;2023-01-19T12:41:31;100324.00;;;11.20
19282;BMP180;9774;52.034;5.342;2023-01-19T12:44:20;100317.00;;;11.10
19282;BMP180;9774;52.034;5.342;2023-01-19T12:46:49;100321.00;;;11.20
19282;BMP180;9774;52.034;5.342;2023-01-19T12:49:23;100320.00;;;11.20
19282;BMP180;9774;52.034;5.342;2023-01-19T12:51:54;100326.00;;;11.30
19282;BMP180;9774;52.034;5.342;2023-01-19T12:54:35;100316.00;;;11.30
19282;BMP180;9774;52.034;5.342;2023-01-19T12:57:08;100319.00;;;11.20
19282;BMP180;9774;52.034;5.342;2023-01-19T12:59:42;100312.00;;;11.20
19282;BMP180;9774;52.034;5.342;2023-01-19T13:02:44;100326.00;;;11.20
19282;BMP180;9774;52.034;5.342;2023-01-19T13:05:47;100319.00;;;11.20
19282;BMP180;9774;52.034;5.342;2023-01-19T13:08:22;100318.00;;;11.30
19282;BMP180;9774;52.034;5.342;2023-01-19T13:11:11;100325.00;;;11.30
19282;BMP180;9774;52.034;5.342;2023-01-19T13:13:39;100335.00;;;11.40
19282;BMP180;9774;52.034;5.342;2023-01-19T13:19:17;100323.00;;;11.60
19282;BMP180;9774;52.034;5.342;2023-01-19T13:21:48;100335.00;;;11.90
19282;BMP180;9774;52.034;5.342;2023-01-19T13:24:18;100332.00;;;12.30
19282;BMP180;9774;52.034;5.342;2023-01-19T13:26:54;100326.00;;;12.70
19282;BMP180;9774;52.034;5.342;2023-01-19T13:29:29;100333.00;;;13.20
19282;BMP180;9774;52.034;5.342;2023-01-19T13:32:00;100330.00;;;13.70
19282;BMP180;9774;52.034;5.342;2023-01-19T13:34:39;100337.00;;;14.20
19282;BMP180;9774;52.034;5.342;2023-01-19T13:37:15;100334.00;;;14.50
19282;BMP180;9774;52.034;5.342;2023-01-19T13:39:48;100334.00;;;14.70
19282;BMP180;9774;52.034;5.342;2023-01-19T13:42:19;100338.00;;;14.70
19282;BMP180;9774;52.034;5.342;2023-01-19T13:44:58;100349.00;;;14.60
19282;BMP180;9774;52.034;5.342;2023-01-19T13:47:32;100335.00;;;14.50
19282;BMP180;9774;52.034;5.342;2023-01-19T13:50:04;100345.00;;;14.60
19282;BMP180;9774;52.034;5.342;2023-01-19T13:52:32;100341.00;;;14.70
19282;BMP180;9774;52.034;5.342;2023-01-19T13:55:00;100350.00;;;14.60
19282;BMP180;9774;52.034;5.342;2023-01-19T13:57:29;100346.00;;;14.40
19282;BMP180;9774;52.034;5.342;2023-01-19T14:00:05;100351.00;;;14.30
19282;BMP180;9774;52.034;5.342;2023-01-19T14:02:33;100360.00;;;14.20
19282;BMP180;9774;52.034;5.342;2023-01-19T14:05:13;100363.00;;;14.00
19282;BMP180;9774;52.034;5.342;2023-01-19T14:07:40;100362.00;;;14.00
19282;BMP180;9774;52.034;5.342;2023-01-19T14:10:13;100358.00;;;13.80
19282;BMP180;9774;52.034;5.342;2023-01-19T14:12:41;100361.00;;;13.70
19282;BMP180;9774;52.034;5.342;2023-01-19T14:15:11;100361.00;;;13.60
19282;BMP180;9774;52.034;5.342;2023-01-19T14:17:40;100359.00;;;13.50
19282;BMP180;9774;52.034;5.342;2023-01-19T14:20:27;100368.00;;;13.30
19282;BMP180;9774;52.034;5.342;2023-01-19T14:22:55;100366.00;;;13.30
19282;BMP180;9774;52.034;5.342;2023-01-19T14:25:27;100371.00;;;13.10
19282;BMP180;9774;52.034;5.342;2023-01-19T14:28:27;100372.00;;;13.00
19282;BMP180;9774;52.034;5.342;2023-01-19T14:30:56;100376.00;;;13.00
19282;BMP180;9774;52.034;5.342;2023-01-19T14:33:34;100384.00;;;12.80
19282;BMP180;9774;52.034;5.342;2023-01-19T14:36:25;100377.00;;;12.80
19282;BMP180;9774;52.034;5.342;2023-01-19T14:38:54;100379.00;;;12.80
19282;BMP180;9774;52.034;5.342;2023-01-19T14:41:24;100376.00;;;12.70
19282;BMP180;9774;52.034;5.342;2023-01-19T14:43:53;100378.00;;;12.70
19282;BMP180;9774;52.034;5.342;2023-01-19T14:46:22;100385.00;;;12.60